Time,TemperatureF,DewpointF,PressureIn,WindDirection,WindDirectionDegrees,WindSpeedMPH,WindSpeedGustMPH,Humidity,HourlyPrecipIn,Conditions,Clouds,dailyrainin,SoftwareType,DateUTC
2013-03-12 00:00:00,48.9,48.1,29.89,SW,217,5.0,5.0,97,0.20, RA,RA,-99.99,VWS V12.06,2013-03-12 04:00:00,
2013-03-12 00:02:00,48.7,46.5,29.83,SSW,201,1.0,3.0,92,0.06, RA,RA,-99.99,VWS V12.06,2013-03-12 04:02:00,
2013-03-12 00:30:00,49.1,48.3,29.86,SW,215,5.0,5.0,97,0.12, RA,RA,-99.99,VWS V12.06,2013-03-12 04:30:00,
2013-03-12 01:00:00,49.2,48.4,29.86,SW,227,8.0,8.0,97,0.10, RA,RA,-99.99,VWS V12.06,2013-03-12 05:00:00,
2013-03-12 01:30:00,49.1,48.3,29.85,SW,219,3.0,3.0,97,0.13, RA,RA,-99.99,VWS V12.06,2013-03-12 05:30:00,
2013-03-12 02:00:00,49.3,48.5,29.83,SSW,200,3.0,3.0,97,0.19, RA,RA,-99.99,VWS V12.06,2013-03-12 06:00:00,
2013-03-12 02:30:00,49.4,48.6,29.82,SSW,199,3.0,5.0,97,0.14, RA,RA,-99.99,VWS V12.06,2013-03-12 06:30:00,
2013-03-12 03:00:00,49.5,48.7,29.80,South,178,4.0,5.0,97,0.05, RA,RA,-99.99,VWS V12.06,2013-03-12 07:00:00,
2013-03-12 03:30:00,49.3,48.8,29.78,SSW,213,7.0,9.0,98,0.05, RA,RA,-99.99,VWS V12.06,2013-03-12 07:30:00,
2013-03-12 04:00:00,49.0,48.2,29.77,SSW,207,3.0,3.0,97,0.14, RA,RA,-99.99,VWS V12.06,2013-03-12 08:00:00,
2013-03-12 04:30:00,48.7,48.2,29.77,SSW,198,4.0,5.0,98,0.21, RA,RA,-99.99,VWS V12.06,2013-03-12 08:30:00,
2013-03-12 05:00:00,48.5,48.0,29.77,NW,305,6.0,6.0,98,0.20, RA,RA,-99.99,VWS V12.06,2013-03-12 09:00:00,
2013-03-12 05:30:00,48.1,47.3,29.77,South,169,0.0,2.0,97,0.16, RA,RA,-99.99,VWS V12.06,2013-03-12 09:30:00,
2013-03-12 06:00:00,47.2,46.4,29.77,NW,320,9.0,9.0,97,0.07, -RA,-RA,-99.99,VWS V12.06,2013-03-12 10:00:00,
2013-03-12 06:30:00,46.3,45.2,29.77,NNW,344,7.0,14.0,96,0.00, -RA,-RA,-99.99,VWS V12.06,2013-03-12 10:30:00,
2013-03-12 07:00:00,45.4,44.0,29.78,West,269,6.0,6.0,95,0.00,,OVC011,-99.99,VWS V12.06,2013-03-12 11:00:00,
2013-03-12 07:30:00,44.7,42.8,29.79,NNW,345,4.0,9.0,93,0.00,,OVC011,-99.99,VWS V12.06,2013-03-12 11:30:00,
2013-03-12 08:00:00,44.0,41.8,29.80,North,5,4.0,10.0,92,0.00,,BKN016,-99.99,VWS V12.06,2013-03-12 12:00:00,
2013-03-12 08:30:00,43.9,41.5,29.81,SSW,201,4.0,11.0,91,0.00,,BKN016,-99.99,VWS V12.06,2013-03-12 12:30:00,
2013-03-12 09:00:00,43.1,40.1,29.82,NW,325,23.0,23.0,89,0.00,,OVC011,-99.99,VWS V12.06,2013-03-12 13:00:00,
2013-03-12 09:30:00,42.1,39.4,29.84,NW,318,5.0,21.0,90,0.00,,OVC011,-99.99,VWS V12.06,2013-03-12 13:30:00,
2013-03-12 10:00:00,42.7,39.1,29.84,North,355,17.0,25.0,87,0.00,,OVC009,-99.99,VWS V12.06,2013-03-12 14:00:00,
2013-03-12 10:30:00,44.5,40.0,29.85,WSW,244,5.0,8.0,84,0.00,,OVC009,-99.99,VWS V12.06,2013-03-12 14:30:00,
2013-03-12 11:00:00,46.2,40.4,29.87,ESE,108,3.0,5.0,80,0.00,,OVC013,-99.99,VWS V12.06,2013-03-12 15:00:00,
2013-03-12 11:30:00,44.9,37.1,29.87,NW,325,4.0,13.0,74,0.00,,OVC013,-99.99,VWS V12.06,2013-03-12 15:30:00,
2013-03-12 12:00:00,46.3,37.8,29.87,WSW,248,8.0,17.0,72,0.00,,BKN011,-99.99,VWS V12.06,2013-03-12 16:00:00,
2013-03-12 12:30:00,48.5,38.8,29.87,ESE,117,3.0,5.0,69,0.00,,BKN011,-99.99,VWS V12.06,2013-03-12 16:30:00,
2013-03-12 13:00:00,48.7,38.6,29.87,NNW,338,5.0,5.0,68,0.00,,SCT014,-99.99,VWS V12.06,2013-03-12 17:00:00,
2013-03-12 13:30:00,49.9,37.8,29.88,WSW,256,15.0,15.0,63,0.00,,SCT014,-99.99,VWS V12.06,2013-03-12 17:30:00,
2013-03-12 14:00:00,48.8,34.7,29.88,WNW,300,6.0,6.0,58,0.00,,SCT016,-99.99,VWS V12.06,2013-03-12 18:00:00,
2013-03-12 14:30:00,48.1,34.0,29.88,WSW,249,3.0,3.0,58,0.00,,SCT016,-99.99,VWS V12.06,2013-03-12 18:30:00,
2013-03-12 15:00:00,48.8,33.8,29.89,NNE,16,5.0,7.0,56,0.00,,SCT020,-99.99,VWS V12.06,2013-03-12 19:00:00,
2013-03-12 15:30:00,48.5,34.0,29.89,North,350,0.0,4.0,57,0.00,,SCT020,-99.99,VWS V12.06,2013-03-12 19:30:00,
2013-03-12 16:00:00,49.3,32.9,29.89,North,5,2.0,3.0,53,0.00,,BKN022,-99.99,VWS V12.06,2013-03-12 20:00:00,
2013-03-12 16:30:00,49.6,33.2,29.89,North,355,2.0,3.0,53,0.00,,BKN022,-99.99,VWS V12.06,2013-03-12 20:30:00,
2013-03-12 17:00:00,49.9,31.0,29.89,NE,34,0.0,1.0,48,0.00,,SCT026,-99.99,VWS V12.06,2013-03-12 21:00:00,
2013-03-12 17:30:00,49.8,29.3,29.89,NNW,348,0.0,3.0,45,0.00,,SCT026,-99.99,VWS V12.06,2013-03-12 21:30:00,
2013-03-12 18:00:00,48.1,30.4,29.91,WNW,295,4.0,5.0,50,0.00,,CLR,-99.99,VWS V12.06,2013-03-12 22:00:00,
2013-03-12 18:30:00,46.7,31.0,29.91,WNW,284,4.0,9.0,54,0.00,,CLR,-99.99,VWS V12.06,2013-03-12 22:30:00,
2013-03-12 19:00:00,44.5,30.2,29.93,NNW,340,7.0,9.0,57,0.00,,CLR,-99.99,VWS V12.06,2013-03-12 23:00:00,
2013-03-12 19:30:00,41.9,30.6,29.95,West,267,2.0,6.0,64,0.00,,CLR,-99.99,VWS V12.06,2013-03-12 23:30:00,
2013-03-12 20:00:00,40.5,30.4,29.96,SW,219,3.0,6.0,67,0.00,,CLR,-99.99,VWS V12.06,2013-03-13 00:00:00,
2013-03-12 20:30:00,40.1,30.8,29.96,NW,306,4.0,11.0,69,0.00,,CLR,-99.99,VWS V12.06,2013-03-13 00:30:00,
2013-03-12 21:00:00,39.6,30.6,29.96,WSW,248,3.0,3.0,70,0.00,,CLR,-99.99,VWS V12.06,2013-03-13 01:00:00,
2013-03-12 21:30:00,39.4,30.1,29.97,WNW,287,4.0,4.0,69,0.00,,CLR,-99.99,VWS V12.06,2013-03-13 01:30:00,
2013-03-12 22:00:00,38.9,29.2,29.97,WSW,240,6.0,6.0,68,0.00,,CLR,-99.99,VWS V12.06,2013-03-13 02:00:00,
2013-03-12 22:30:00,38.4,28.8,29.97,West,270,2.0,9.0,68,0.00,,CLR,-99.99,VWS V12.06,2013-03-13 02:30:00,
2013-03-12 23:00:00,38.3,26.0,29.96,WNW,286,9.0,32.0,61,0.00,,CLR,-99.99,VWS V12.06,2013-03-13 03:00:00,
2013-03-12 23:30:00,38.0,26.9,29.96,WNW,294,11.0,31.0,64,0.00,,CLR,-99.99,VWS V12.06,2013-03-13 03:30:00,